Time;durP1;ratioP1;P1;durP2;ratioP2;P2;SDS_P1;SDS_P2;PMS_P1;PMS_P2;Temp;Humidity;BMP_temperature;BMP_pressure;BME280_temperature;BME280_humidity;BME280_pressure;Samples;Min_cycle;Max_cycle;Signal;HPM_P1;HPM_P2
2021/12/28 00:01:16;;;;;;;14.77;7.30;;;9.50;99.90;;;;;;5013013;28;20264;-70
2021/12/28 00:03:43;;;;;;;16.47;8.40;;;9.60;99.90;;;;;;5032373;28;20300;-69
2021/12/28 00:06:10;;;;;;;19.60;8.63;;;9.60;99.90;;;;;;5034231;28;20438;-70
2021/12/28 00:08:37;;;;;;;14.93;8.07;;;9.60;99.90;;;;;;5022670;28;20432;-70
2021/12/28 00:11:04;;;;;;;11.77;6.57;;;;;;;;;;5027142;28;20519;-71
2021/12/28 00:13:30;;;;;;;15.40;7.10;;;9.50;99.90;;;;;;5027177;28;20954;-70
2021/12/28 00:18:22;;;;;;;15.53;7.50;;;9.50;99.90;;;;;;5034771;28;20455;-70
2021/12/28 00:20:52;;;;;;;11.33;6.80;;;9.50;99.90;;;;;;5027146;28;20173;-71
2021/12/28 00:23:24;;;;;;;12.90;5.93;;;9.60;99.90;;;;;;5016752;28;20479;-70
2021/12/28 00:25:53;;;;;;;11.90;5.93;;;9.60;99.90;;;;;;5048101;28;20507;-70
2021/12/28 00:28:19;;;;;;;11.17;6.30;;;9.50;99.90;;;;;;5035264;28;20930;-69
2021/12/28 00:30:47;;;;;;;11.20;6.10;;;9.30;99.90;;;;;;5029457;28;20428;-70
2021/12/28 00:33:13;;;;;;;10.93;6.40;;;9.30;99.90;;;;;;5040862;28;20448;-69
2021/12/28 00:35:39;;;;;;;10.67;6.43;;;9.20;99.90;;;;;;5043952;28;20949;-71
2021/12/28 00:38:07;;;;;;;13.77;6.30;;;9.10;99.90;;;;;;5029609;28;20193;-70
2021/12/28 00:40:33;;;;;;;12.40;5.60;;;9.00;99.90;;;;;;5030319;28;20436;-70
2021/12/28 00:42:59;;;;;;;12.63;6.03;;;8.90;99.90;;;;;;5049436;28;20463;-71
2021/12/28 00:45:25;;;;;;;10.83;7.57;;;9.00;99.90;;;;;;5028189;28;20954;-71
2021/12/28 00:47:51;;;;;;;14.00;7.40;;;9.00;99.90;;;;;;5024398;28;20785;-70
2021/12/28 00:50:18;;;;;;;16.20;5.40;;;8.90;99.90;;;;;;5035599;28;20215;-70
2021/12/28 00:52:44;;;;;;;21.10;8.70;;;8.90;99.90;;;;;;5030772;28;20197;-70
2021/12/28 00:55:11;;;;;;;11.03;6.20;;;9.00;99.90;;;;;;5028153;28;20428;-69
2021/12/28 00:57:37;;;;;;;9.97;5.90;;;9.10;99.90;;;;;;5029130;28;20193;-70
2021/12/28 01:00:06;;;;;;;12.33;5.90;;;9.10;99.90;;;;;;5037674;28;20427;-70
2021/12/28 01:02:32;;;;;;;7.57;5.20;;;9.10;99.90;;;;;;5036015;28;20213;-70
2021/12/28 01:04:58;;;;;;;13.30;4.83;;;;;;;;;;5044280;28;20426;-70
2021/12/28 01:07:23;;;;;;;6.70;4.43;;;9.30;99.90;;;;;;5028109;28;20525;-70
2021/12/28 01:09:49;;;;;;;13.83;4.50;;;9.30;99.90;;;;;;5037487;28;20460;-70
2021/12/28 01:12:15;;;;;;;8.27;4.57;;;9.40;99.90;;;;;;5031019;28;20202;-70
2021/12/28 01:14:40;;;;;;;6.63;3.93;;;9.40;99.90;;;;;;5026999;28;20678;-70
2021/12/28 01:17:07;;;;;;;4.83;3.80;;;9.70;99.90;;;;;;5010794;28;20210;-70
2021/12/28 01:19:33;;;;;;;10.30;3.70;;;9.40;99.90;;;;;;5030125;28;20215;-70
2021/12/28 01:22:01;;;;;;;7.27;3.73;;;9.50;99.90;;;;;;5028760;28;20475;-70
2021/12/28 01:24:28;;;;;;;6.20;3.43;;;9.40;99.90;;;;;;5030164;28;20921;-70
2021/12/28 01:26:53;;;;;;;10.03;3.63;;;9.40;99.90;;;;;;5021795;28;20417;-70
2021/12/28 01:29:19;;;;;;;9.57;3.40;;;9.30;99.90;;;;;;5037859;28;20416;-71
2021/12/28 01:31:44;;;;;;;13.70;4.07;;;9.10;99.90;;;;;;5034060;28;20188;-70
2021/12/28 01:34:10;;;;;;;8.23;3.50;;;9.10;99.90;;;;;;5033619;28;20174;-71
2021/12/28 01:36:35;;;;;;;8.20;3.50;;;9.10;99.90;;;;;;5028526;28;20333;-71
2021/12/28 01:39:04;;;;;;;5.03;3.10;;;9.00;99.90;;;;;;5036397;28;20451;-70
2021/12/28 01:41:30;;;;;;;9.80;3.10;;;;;;;;;;5033672;28;20181;-70
2021/12/28 01:44:01;;;;;;;10.53;3.30;;;9.00;99.90;;;;;;5030197;28;20408;-70
2021/12/28 01:46:27;;;;;;;9.37;3.40;;;9.00;99.90;;;;;;5029697;28;20436;-70
2021/12/28 01:48:53;;;;;;;5.97;2.80;;;8.90;99.90;;;;;;5032868;28;20897;-70
2021/12/28 01:51:21;;;;;;;9.60;2.67;;;8.80;99.90;;;;;;5021340;28;20425;-70
2021/12/28 01:53:48;;;;;;;11.07;3.20;;;8.90;99.90;;;;;;5029660;28;20205;-70
2021/12/28 01:56:17;;;;;;;7.27;3.20;;;8.90;99.90;;;;;;5034032;28;20830;-70
2021/12/28 01:58:45;;;;;;;11.07;3.27;;;8.80;99.90;;;;;;5023158;28;20432;-70
2021/12/28 02:01:11;;;;;;;7.47;2.90;;;8.80;99.90;;;;;;5028765;28;20939;-70
2021/12/28 02:03:39;;;;;;;10.80;3.33;;;8.80;99.90;;;;;;5038871;28;20475;-70
2021/12/28 02:06:05;;;;;;;6.10;3.93;;;8.80;99.90;;;;;;5034298;28;20519;-70
2021/12/28 02:08:31;;;;;;;9.60;3.23;;;8.80;99.90;;;;;;5029800;28;20967;-70
2021/12/28 02:10:57;;;;;;;10.23;3.43;;;8.70;99.90;;;;;;5028668;28;20421;-70
2021/12/28 02:13:24;;;;;;;5.73;3.00;;;8.60;99.90;;;;;;5029703;28;20194;-71
2021/12/28 02:15:50;;;;;;;9.83;3.83;;;;;;;;;;5028823;28;20993;-70
2021/12/28 02:18:19;;;;;;;7.83;3.30;;;8.70;99.90;;;;;;5027099;28;20443;-71
2021/12/28 02:20:45;;;;;;;8.17;3.17;;;8.60;99.90;;;;;;5025939;28;21003;-70
2021/12/28 02:23:11;;;;;;;9.17;3.00;;;8.60;99.90;;;;;;5009137;28;20468;-70
2021/12/28 02:25:38;;;;;;;7.63;3.20;;;8.60;99.90;;;;;;5013233;28;20427;-70
2021/12/28 02:28:06;;;;;;;7.00;3.03;;;8.60;99.90;;;;;;5021791;28;20174;-70
2021/12/28 02:30:32;;;;;;;11.80;3.53;;;8.70;99.90;;;;;;5029311;28;20488;-70
2021/12/28 02:32:59;;;;;;;5.97;2.93;;;8.70;99.90;;;;;;5029940;28;20862;-70
2021/12/28 02:35:26;;;;;;;9.20;2.97;;;8.80;99.90;;;;;;5031658;28;20431;-70
2021/12/28 02:37:54;;;;;;;5.20;3.07;;;8.90;99.90;;;;;;5015261;28;20743;-70
2021/12/28 02:40:23;;;;;;;10.03;3.03;;;8.90;99.90;;;;;;5029010;28;20408;-70
2021/12/28 02:42:50;;;;;;;8.60;3.53;;;8.90;99.90;;;;;;5028454;28;20480;-70
2021/12/28 02:45:22;;;;;;;9.03;2.90;;;8.90;99.90;;;;;;5030285;28;20421;-70
2021/12/28 02:47:48;;;;;;;8.47;3.27;;;8.80;99.90;;;;;;5021758;28;20801;-70
2021/12/28 02:50:18;;;;;;;6.53;3.07;;;8.80;99.90;;;;;;5028282;28;20420;-70
2021/12/28 02:52:43;;;;;;;7.30;3.07;;;8.80;99.90;;;;;;5026638;28;20451;-70
2021/12/28 02:55:12;;;;;;;9.03;3.10;;;8.80;99.90;;;;;;5027568;28;20413;-70
2021/12/28 02:57:44;;;;;;;7.93;3.10;;;8.80;99.90;;;;;;5032469;28;20181;-71
2021/12/28 03:00:10;;;;;;;6.33;3.00;;;8.80;99.90;;;;;;5028646;28;20408;-71
2021/12/28 03:02:36;;;;;;;6.90;3.10;;;8.80;99.90;;;;;;5032835;28;20794;-70
2021/12/28 03:05:01;;;;;;;10.30;2.83;;;8.80;99.90;;;;;;5041480;28;20441;-70
2021/12/28 03:07:30;;;;;;;7.30;3.10;;;8.80;99.90;;;;;;5034889;28;20190;-70
2021/12/28 03:09:55;;;;;;;13.47;2.90;;;9.10;99.90;;;;;;5025689;28;20189;-70
2021/12/28 03:12:21;;;;;;;11.30;2.80;;;8.60;99.90;;;;;;5028854;28;20421;-70
2021/12/28 03:14:48;;;;;;;7.10;2.90;;;8.90;99.90;;;;;;5028437;28;20197;-71
2021/12/28 03:17:14;;;;;;;11.60;3.70;;;8.90;99.90;;;;;;5019923;28;20190;-70
2021/12/28 03:19:39;;;;;;;6.60;3.00;;;8.90;99.90;;;;;;5008549;28;20433;-69
2021/12/28 03:22:05;;;;;;;10.33;5.60;;;8.90;99.90;;;;;;5008243;28;20202;-70
2021/12/28 03:24:30;;;;;;;7.37;3.00;;;8.90;99.90;;;;;;5027941;28;20181;-70
2021/12/28 03:26:56;;;;;;;6.43;3.03;;;;;;;;;;5026276;28;20647;-70
2021/12/28 03:29:22;;;;;;;15.97;3.00;;;8.90;99.90;;;;;;5028625;28;20205;-70
2021/12/28 03:31:48;;;;;;;11.73;3.23;;;8.90;99.90;;;;;;5030233;28;20479;-70
2021/12/28 03:34:14;;;;;;;10.60;2.63;;;8.90;99.90;;;;;;5026407;28;20268;-71
2021/12/28 03:36:41;;;;;;;8.10;2.43;;;8.90;99.90;;;;;;5026934;28;20500;-69
2021/12/28 03:39:07;;;;;;;7.27;2.20;;;8.90;99.90;;;;;;5027373;28;20184;-71
2021/12/28 03:41:33;;;;;;;6.47;2.80;;;9.00;99.90;;;;;;5027657;28;20408;-71
2021/12/28 03:44:01;;;;;;;7.83;2.20;;;9.00;99.90;;;;;;5040935;28;20749;-70
2021/12/28 03:46:28;;;;;;;6.10;2.73;;;;;;;;;;5047199;28;20423;-70
2021/12/28 03:48:54;;;;;;;8.17;2.23;;;9.00;99.90;;;;;;5012793;28;20427;-70
2021/12/28 03:51:19;;;;;;;6.03;2.60;;;9.10;99.90;;;;;;5027277;28;20768;-70
2021/12/28 03:53:46;;;;;;;7.10;2.30;;;9.10;99.90;;;;;;5039606;28;20292;-70
2021/12/28 03:56:13;;;;;;;5.50;2.50;;;9.10;99.90;;;;;;5045797;28;20177;-70
2021/12/28 03:58:40;;;;;;;11.00;2.50;;;9.20;99.90;;;;;;5027892;28;20439;-70
2021/12/28 04:01:08;;;;;;;6.57;2.70;;;9.20;99.90;;;;;;5026639;28;20428;-70
2021/12/28 04:03:33;;;;;;;10.87;2.80;;;9.20;99.90;;;;;;5037560;28;20474;-70
2021/12/28 04:06:07;;;;;;;8.40;2.63;;;9.30;99.90;;;;;;5026598;28;20417;-71
2021/12/28 04:08:32;;;;;;;6.50;2.70;;;9.30;99.90;;;;;;5020926;28;20185;-70
2021/12/28 04:11:13;;;;;;;5.53;2.03;;;9.30;99.90;;;;;;5034092;28;20411;-70
2021/12/28 04:13:39;;;;;;;8.40;2.40;;;9.30;99.90;;;;;;5029627;28;20208;-70
2021/12/28 04:16:05;;;;;;;7.97;2.47;;;9.30;99.90;;;;;;5027869;28;20413;-70
2021/12/28 04:18:30;;;;;;;7.03;2.23;;;9.30;99.90;;;;;;5024189;28;20515;-70
2021/12/28 04:20:56;;;;;;;9.63;2.60;;;9.30;99.90;;;;;;5041794;28;20215;-69
2021/12/28 04:23:22;;;;;;;5.07;2.40;;;9.40;99.90;;;;;;5031534;28;20206;-70
2021/12/28 04:25:47;;;;;;;10.37;3.20;;;9.30;99.90;;;;;;5025698;28;20620;-70
2021/12/28 04:28:13;;;;;;;8.43;2.63;;;9.40;99.90;;;;;;5022717;28;20719;-70
2021/12/28 04:30:38;;;;;;;9.43;3.57;;;9.40;99.90;;;;;;5026903;28;20254;-71
2021/12/28 04:33:04;;;;;;;8.10;2.60;;;9.00;99.90;;;;;;5025570;28;20198;-69
2021/12/28 04:35:30;;;;;;;9.17;2.97;;;9.30;99.90;;;;;;5026772;28;20174;-71
2021/12/28 04:37:55;;;;;;;6.53;2.40;;;9.30;99.90;;;;;;5027090;28;20305;-69
2021/12/28 04:40:22;;;;;;;8.47;2.87;;;;;;;;;;5027209;28;20268;-70
2021/12/28 04:42:48;;;;;;;5.20;2.30;;;9.20;99.90;;;;;;5026818;28;20198;-70
2021/12/28 04:45:15;;;;;;;11.20;2.67;;;9.20;99.90;;;;;;5026357;28;20959;-69
2021/12/28 04:47:41;;;;;;;7.77;2.73;;;9.20;99.90;;;;;;5021845;28;20283;-70
2021/12/28 04:50:09;;;;;;;8.63;2.70;;;9.20;99.90;;;;;;5025777;28;20443;-69
2021/12/28 04:52:37;;;;;;;4.43;2.53;;;9.20;99.90;;;;;;5026558;28;20470;-69
2021/12/28 04:55:11;;;;;;;10.17;2.70;;;9.20;99.90;;;;;;5027131;28;20416;-70
2021/12/28 04:57:38;;;;;;;5.83;2.53;;;9.10;99.90;;;;;;5019146;28;20433;-70
2021/12/28 05:00:11;;;;;;;10.20;2.50;;;9.20;99.90;;;;;;5037313;28;20427;-71
2021/12/28 05:02:36;;;;;;;8.33;2.70;;;9.10;99.90;;;;;;5017805;28;20920;-70
2021/12/28 05:05:03;;;;;;;7.77;2.53;;;9.10;99.90;;;;;;5032532;28;20467;-70
2021/12/28 05:07:29;;;;;;;10.50;2.97;;;9.10;99.90;;;;;;5023469;28;20639;-70
2021/12/28 05:09:57;;;;;;;11.13;3.00;;;9.10;99.90;;;;;;5022348;28;20432;-70
2021/12/28 05:12:24;;;;;;;11.67;2.90;;;9.10;99.90;;;;;;5028294;28;20575;-70
2021/12/28 05:14:49;;;;;;;8.40;2.73;;;9.00;99.90;;;;;;5030220;28;20510;-70
2021/12/28 05:17:15;;;;;;;9.30;2.53;;;9.00;99.90;;;;;;5022445;28;20433;-70
2021/12/28 05:19:40;;;;;;;8.40;2.63;;;8.90;99.90;;;;;;5033403;28;20203;-70
2021/12/28 05:22:08;;;;;;;20.40;3.47;;;8.90;99.90;;;;;;5044569;28;20198;-70
2021/12/28 05:24:35;;;;;;;8.20;2.97;;;8.90;99.90;;;;;;5030830;28;20171;-70
2021/12/28 05:27:01;;;;;;;11.97;2.83;;;8.70;99.90;;;;;;5025945;28;20769;-70
2021/12/28 05:29:26;;;;;;;7.40;2.13;;;8.90;99.90;;;;;;5039608;28;20470;-70
2021/12/28 05:31:52;;;;;;;10.47;2.43;;;8.80;99.90;;;;;;5043957;28;20555;-70
2021/12/28 05:34:17;;;;;;;14.40;2.87;;;8.80;99.90;;;;;;5019023;28;20182;-70
2021/12/28 05:36:43;;;;;;;14.83;3.87;;;8.80;99.90;;;;;;5029390;28;20473;-70
2021/12/28 05:39:09;;;;;;;9.03;2.70;;;8.90;99.90;;;;;;5036301;28;20473;-70
2021/12/28 05:41:34;;;;;;;11.20;3.07;;;8.90;99.90;;;;;;5050063;28;20169;-70
2021/12/28 05:44:00;;;;;;;12.77;2.70;;;8.80;99.90;;;;;;5044460;28;20209;-70
2021/12/28 05:46:25;;;;;;;15.33;3.00;;;8.90;99.90;;;;;;5038994;28;20599;-70
2021/12/28 05:48:51;;;;;;;11.87;3.60;;;8.90;99.90;;;;;;5020334;28;20174;-70
2021/12/28 05:51:16;;;;;;;7.60;2.90;;;8.80;99.90;;;;;;5029411;28;20208;-70
2021/12/28 05:53:42;;;;;;;7.67;2.70;;;8.90;99.90;;;;;;5019281;28;20237;-70
2021/12/28 05:56:08;;;;;;;9.03;3.20;;;8.90;99.90;;;;;;5023178;28;20166;-69
2021/12/28 05:58:33;;;;;;;6.63;2.07;;;8.90;99.90;;;;;;5017775;28;20273;-69
2021/12/28 06:00:59;;;;;;;6.93;2.43;;;8.90;99.90;;;;;;5029433;28;20612;-69
2021/12/28 06:03:25;;;;;;;8.67;2.87;;;8.90;99.90;;;;;;5029929;28;20209;-70
2021/12/28 06:05:50;;;;;;;7.50;2.07;;;8.90;99.90;;;;;;5026948;28;20585;-70
2021/12/28 06:08:16;;;;;;;9.77;2.67;;;8.90;99.90;;;;;;5026113;28;20201;-70
2021/12/28 06:10:41;;;;;;;6.87;2.63;;;9.00;99.90;;;;;;5048217;28;20185;-70
2021/12/28 06:13:07;;;;;;;7.53;2.27;;;9.00;99.90;;;;;;5031798;28;20715;-70
2021/12/28 06:15:32;;;;;;;5.73;2.00;;;8.90;99.90;;;;;;5029886;28;20256;-70
2021/12/28 06:17:58;;;;;;;7.13;2.13;;;8.90;99.90;;;;;;5032432;28;20659;-71
2021/12/28 06:20:23;;;;;;;6.50;2.40;;;8.90;99.90;;;;;;5031608;28;20609;-70
2021/12/28 06:22:49;;;;;;;10.57;2.23;;;8.90;99.90;;;;;;5027113;28;20234;-70
2021/12/28 06:25:15;;;;;;;11.90;2.97;;;8.70;99.90;;;;;;5029271;28;20166;-70
2021/12/28 06:27:40;;;;;;;7.20;2.20;;;8.90;99.90;;;;;;5027150;28;20212;-70
2021/12/28 06:30:06;;;;;;;10.00;2.43;;;8.90;99.90;;;;;;5049406;28;20177;-70
2021/12/28 06:32:32;;;;;;;7.83;2.10;;;8.90;99.90;;;;;;5025938;28;20237;-70
2021/12/28 06:34:57;;;;;;;6.40;2.43;;;9.00;99.90;;;;;;5042753;28;20886;-70
2021/12/28 06:37:23;;;;;;;12.27;2.57;;;9.00;99.90;;;;;;5033323;28;20233;-69
2021/12/28 06:39:48;;;;;;;8.43;2.10;;;9.00;99.90;;;;;;5031109;28;20177;-70
2021/12/28 06:42:14;;;;;;;9.00;2.43;;;9.00;99.90;;;;;;5023558;28;20206;-70
2021/12/28 06:44:42;;;;;;;8.83;2.57;;;8.90;99.90;;;;;;5018855;28;20472;-71
2021/12/28 06:47:08;;;;;;;9.90;3.07;;;9.10;99.90;;;;;;5026315;28;20197;-70
2021/12/28 06:49:33;;;;;;;8.23;2.53;;;8.90;99.90;;;;;;5045388;28;20455;-70
2021/12/28 06:51:59;;;;;;;9.17;2.73;;;8.80;99.90;;;;;;5039182;28;20636;-70
2021/12/28 06:54:24;;;;;;;6.60;2.60;;;8.80;99.90;;;;;;5008448;28;20471;-70
2021/12/28 06:56:50;;;;;;;9.33;2.80;;;8.90;99.90;;;;;;5007832;28;20170;-70
2021/12/28 06:59:15;;;;;;;7.80;2.90;;;8.70;99.90;;;;;;5034685;28;20178;-69
2021/12/28 07:01:41;;;;;;;10.67;3.07;;;8.60;99.90;;;;;;5030221;28;20211;-70
2021/12/28 07:04:07;;;;;;;25.27;8.40;;;8.70;99.90;;;;;;5031096;28;20201;-69
2021/12/28 07:06:33;;;;;;;15.50;6.83;;;;;;;;;;5024887;28;20174;-70
2021/12/28 07:08:58;;;;;;;10.30;2.47;;;8.70;99.90;;;;;;5034388;28;20188;-70
2021/12/28 07:11:24;;;;;;;7.30;3.10;;;8.60;99.90;;;;;;5043598;28;20498;-70
2021/12/28 07:13:49;;;;;;;7.70;3.00;;;8.70;99.90;;;;;;5008814;28;20549;-70
2021/12/28 07:16:15;;;;;;;6.03;3.07;;;8.70;99.90;;;;;;5018705;28;20162;-69
2021/12/28 07:18:41;;;;;;;12.57;4.27;;;8.70;99.90;;;;;;5036140;28;20257;-70
2021/12/28 07:21:06;;;;;;;10.23;3.00;;;8.70;99.90;;;;;;5025463;28;20398;-70
2021/12/28 07:23:32;;;;;;;7.70;3.17;;;8.70;99.90;;;;;;5025840;28;20283;-70
2021/12/28 07:25:58;;;;;;;6.20;2.83;;;;;;;;;;5026558;28;20186;-70
2021/12/28 07:28:25;;;;;;;10.10;2.97;;;8.70;99.90;;;;;;5027662;28;20169;-70
2021/12/28 07:30:52;;;;;;;10.00;2.73;;;8.70;99.90;;;;;;5039495;28;20922;-70
2021/12/28 07:33:18;;;;;;;7.37;2.90;;;8.70;99.90;;;;;;5024333;28;20452;-70
2021/12/28 07:35:44;;;;;;;5.83;2.70;;;8.80;99.90;;;;;;5026394;28;20498;-70
2021/12/28 07:38:09;;;;;;;4.90;2.20;;;8.80;99.90;;;;;;5024725;28;20196;-69
2021/12/28 07:40:35;;;;;;;4.57;2.17;;;8.80;99.90;;;;;;5021474;28;20174;-69
2021/12/28 07:43:01;;;;;;;4.53;2.10;;;8.80;99.90;;;;;;5026140;28;20292;-70
2021/12/28 15:57:09;;;;;;;7.83;2.83;;;8.20;99.90;;;;;;5084560;28;20548;-70
2021/12/28 15:59:34;;;;;;;19.23;2.80;;;8.30;99.90;;;;;;5085046;28;20499;-70
2021/12/28 16:02:00;;;;;;;11.03;2.77;;;8.40;99.90;;;;;;5084598;28;20232;-70
2021/12/28 16:04:27;;;;;;;11.77;3.40;;;8.40;99.90;;;;;;5087260;28;20195;-70
2021/12/28 16:06:53;;;;;;;9.07;3.03;;;;;;;;;;5083717;28;20249;-70
2021/12/28 16:09:19;;;;;;;11.63;2.50;;;;;;;;;;5085193;28;20398;-70
2021/12/28 16:11:45;;;;;;;10.90;2.77;;;;;;;;;;5084664;28;20172;-70
2021/12/28 16:14:12;;;;;;;9.23;3.20;;;8.70;99.90;;;;;;5083479;28;20530;-70
2021/12/28 16:16:38;;;;;;;12.07;4.37;;;8.70;99.90;;;;;;5084193;28;20938;-69
2021/12/28 16:19:03;;;;;;;8.40;3.27;;;8.80;99.90;;;;;;5081529;28;20462;-70
2021/12/28 16:21:29;;;;;;;9.73;3.93;;;;;;;;;;5083953;28;20259;-70
2021/12/28 16:23:55;;;;;;;6.03;2.77;;;8.90;99.90;;;;;;5070500;28;20617;-70
2021/12/28 16:26:21;;;;;;;10.77;3.00;;;8.90;99.90;;;;;;5095951;28;20466;-69
2021/12/28 16:28:53;;;;;;;8.60;3.00;;;8.90;99.90;;;;;;5078093;28;20255;-69
2021/12/28 16:31:19;;;;;;;8.10;2.73;;;;;;;;;;5069422;28;20916;-70
2021/12/28 16:33:45;;;;;;;10.37;3.13;;;;;;;;;;5085623;28;20442;-70
2021/12/28 16:36:10;;;;;;;7.07;2.77;;;8.90;99.90;;;;;;5066529;28;20491;-70
2021/12/28 16:38:38;;;;;;;10.43;3.13;;;8.90;99.90;;;;;;5080702;28;20184;-70
2021/12/28 16:41:05;;;;;;;7.03;2.40;;;8.90;99.90;;;;;;5076339;28;20173;-69
2021/12/28 16:43:31;;;;;;;12.37;4.13;;;9.00;99.90;;;;;;5073424;28;20509;-69
2021/12/28 16:45:58;;;;;;;18.60;5.27;;;9.00;99.90;;;;;;5071436;28;20944;-70
2021/12/28 16:48:24;;;;;;;16.60;4.40;;;9.00;99.90;;;;;;5062192;28;20230;-70
2021/12/28 16:50:50;;;;;;;6.87;3.20;;;9.00;99.90;;;;;;5074808;28;20414;-69
2021/12/28 16:53:20;;;;;;;12.47;3.50;;;9.00;99.90;;;;;;5098559;28;20192;-70
2021/12/28 16:55:47;;;;;;;12.07;3.10;;;8.90;99.90;;;;;;5082204;28;20440;-70
2021/12/28 16:58:13;;;;;;;4.60;1.97;;;8.90;99.90;;;;;;5080606;28;20416;-69
2021/12/28 17:00:39;;;;;;;13.17;3.47;;;8.70;99.90;;;;;;5080723;28;20475;-70
2021/12/28 17:03:06;;;;;;;8.40;2.10;;;8.80;99.90;;;;;;5086395;28;20432;-69
2021/12/28 17:05:32;;;;;;;6.03;1.97;;;8.90;99.90;;;;;;5102026;28;20989;-69
2021/12/28 17:07:58;;;;;;;8.83;2.13;;;8.80;99.90;;;;;;5079839;28;20802;-70
2021/12/28 17:10:24;;;;;;;4.00;2.03;;;8.80;99.90;;;;;;5070216;28;20498;-69
2021/12/28 17:12:51;;;;;;;4.70;1.70;;;8.80;99.90;;;;;;5069260;28;20441;-69
2021/12/28 17:15:17;;;;;;;7.23;1.53;;;;;;;;;;5057898;28;20503;-70
2021/12/28 17:17:43;;;;;;;10.40;2.23;;;8.80;99.90;;;;;;5048393;28;20467;-69
2021/12/28 17:20:10;;;;;;;8.33;2.03;;;8.70;99.90;;;;;;5049853;28;20443;-69
2021/12/28 17:22:36;;;;;;;7.93;1.63;;;8.70;99.90;;;;;;5061107;28;20792;-69
2021/12/28 17:25:03;;;;;;;9.23;2.00;;;8.80;99.90;;;;;;5063659;28;20514;-70
2021/12/28 17:27:29;;;;;;;6.00;1.70;;;8.70;99.90;;;;;;5055094;28;20181;-70
2021/12/28 17:29:54;;;;;;;2.80;1.60;;;8.60;99.90;;;;;;5069236;28;21091;-69
2021/12/28 17:32:20;;;;;;;3.57;1.77;;;8.60;99.90;;;;;;5070871;28;20196;-70
2021/12/28 17:34:46;;;;;;;7.70;1.60;;;8.60;99.90;;;;;;5080699;28;20668;-70
2021/12/28 17:37:12;;;;;;;7.90;1.57;;;8.60;99.90;;;;;;5058997;28;20745;-69
2021/12/28 17:39:37;;;;;;;5.53;1.60;;;8.70;99.90;;;;;;5053817;28;20567;-68
2021/12/28 17:42:04;;;;;;;4.93;1.60;;;8.80;99.90;;;;;;5068406;28;20234;-69
2021/12/28 17:44:30;;;;;;;7.30;1.97;;;8.80;99.90;;;;;;5064133;28;20518;-69
2021/12/28 17:46:55;;;;;;;4.97;1.70;;;8.80;99.90;;;;;;5062930;28;20549;-69
2021/12/28 17:49:21;;;;;;;5.53;1.83;;;8.80;99.90;;;;;;5064374;28;20239;-69
2021/12/28 17:51:47;;;;;;;6.87;1.90;;;8.90;99.90;;;;;;5050570;28;20705;-69
2021/12/28 17:54:12;;;;;;;4.67;1.80;;;8.90;99.90;;;;;;5058881;28;20176;-69
2021/12/28 17:56:38;;;;;;;8.87;1.90;;;8.90;99.90;;;;;;5050891;28;20280;-70
2021/12/28 17:59:03;;;;;;;4.20;2.00;;;8.90;99.90;;;;;;5064633;28;20665;-70
2021/12/28 18:01:29;;;;;;;5.10;1.57;;;9.00;99.90;;;;;;5051141;28;20492;-69
2021/12/28 18:03:56;;;;;;;7.57;2.67;;;9.00;99.90;;;;;;5065896;28;20674;-69
2021/12/28 18:06:23;;;;;;;5.23;2.13;;;9.00;99.90;;;;;;5067090;28;20207;-68
2021/12/28 18:08:48;;;;;;;7.50;2.77;;;9.00;99.90;;;;;;5061922;28;20462;-70
2021/12/28 18:11:14;;;;;;;5.83;1.80;;;7.90;99.90;;;;;;5059205;28;20447;-69
2021/12/28 18:13:40;;;;;;;7.17;2.40;;;9.00;99.90;;;;;;5047663;28;20204;-70
2021/12/28 18:16:05;;;;;;;8.07;2.00;;;9.10;99.90;;;;;;5066536;28;20183;-73
2021/12/28 18:18:33;;;;;;;8.03;2.60;;;9.10;99.90;;;;;;5063644;28;20184;-70
2021/12/28 18:20:59;;;;;;;6.77;2.10;;;9.10;99.90;;;;;;5066453;28;20181;-69
2021/12/28 18:23:25;;;;;;;6.20;2.20;;;9.20;99.90;;;;;;5066626;28;20461;-69
2021/12/28 18:25:51;;;;;;;7.33;2.03;;;9.20;99.90;;;;;;5067189;28;20246;-70
2021/12/28 18:28:19;;;;;;;9.40;2.50;;;9.70;99.90;;;;;;5064878;28;20188;-70
2021/12/28 18:30:46;;;;;;;7.67;2.33;;;9.30;99.90;;;;;;5051482;28;20192;-69
2021/12/28 18:33:15;;;;;;;14.87;2.50;;;9.40;99.90;;;;;;5064738;28;20450;-69
2021/12/28 18:35:45;;;;;;;9.00;2.37;;;9.40;99.90;;;;;;5062500;28;20439;-69
2021/12/28 18:38:13;;;;;;;6.50;2.27;;;9.70;99.90;;;;;;5060257;28;20874;-69
2021/12/28 18:40:40;;;;;;;11.63;2.63;;;9.50;99.90;;;;;;5052215;28;20514;-68
2021/12/28 18:43:08;;;;;;;7.13;2.20;;;9.50;99.90;;;;;;5057316;28;20442;-69
2021/12/28 18:45:36;;;;;;;12.20;3.10;;;9.50;99.90;;;;;;5066171;28;20756;-68
2021/12/28 18:48:03;;;;;;;7.87;2.83;;;9.50;99.90;;;;;;5056456;28;20541;-69
2021/12/28 18:50:30;;;;;;;7.37;2.07;;;9.50;99.90;;;;;;5062340;28;20448;-68
2021/12/28 18:52:56;;;;;;;15.70;5.30;;;9.50;99.90;;;;;;5079039;28;20483;-69
2021/12/28 18:55:22;;;;;;;8.77;2.80;;;9.50;99.90;;;;;;5064266;28;20478;-69
2021/12/28 18:57:48;;;;;;;12.70;3.57;;;9.50;99.90;;;;;;5063131;28;20411;-69
2021/12/28 19:00:24;;;;;;;11.30;2.70;;;9.50;99.90;;;;;;5047002;28;20412;-69
2021/12/28 19:02:50;;;;;;;8.00;2.63;;;9.60;99.90;;;;;;5067395;28;20496;-69
2021/12/28 19:05:18;;;;;;;7.30;3.37;;;9.60;99.90;;;;;;5080410;28;20908;-69
2021/12/28 19:07:44;;;;;;;10.27;3.83;;;9.60;99.90;;;;;;5065227;28;20431;-70
2021/12/28 19:10:13;;;;;;;14.13;2.53;;;9.60;99.90;;;;;;5068378;28;20536;-69
2021/12/28 19:12:38;;;;;;;14.32;5.18;;;9.60;99.90;;;;;;5064113;28;20418;-69
2021/12/28 19:15:06;;;;;;;6.17;2.73;;;9.70;99.90;;;;;;5066151;28;20187;-70
2021/12/28 19:17:32;;;;;;;6.83;2.13;;;9.70;99.90;;;;;;5065953;28;20809;-69
2021/12/28 19:19:57;;;;;;;8.53;2.97;;;9.70;99.90;;;;;;5068116;28;20506;-70
2021/12/28 19:22:23;;;;;;;8.43;2.50;;;9.70;99.90;;;;;;5065516;28;20617;-69
2021/12/28 19:24:49;;;;;;;7.60;2.23;;;9.70;99.90;;;;;;5059345;28;20280;-69
2021/12/28 19:27:16;;;;;;;18.87;6.97;;;9.70;99.90;;;;;;5057641;28;20172;-69
2021/12/28 19:29:42;;;;;;;7.37;2.87;;;9.60;99.90;;;;;;5057719;28;21034;-70
2021/12/28 19:32:07;;;;;;;10.37;2.40;;;9.70;99.90;;;;;;5061578;28;20529;-69
2021/12/28 19:34:33;;;;;;;10.93;2.60;;;9.70;99.90;;;;;;5061788;28;20530;-70
2021/12/28 19:36:59;;;;;;;6.70;2.30;;;9.70;99.90;;;;;;5078425;28;20303;-69
2021/12/28 19:39:25;;;;;;;14.20;2.60;;;9.80;99.90;;;;;;5050172;28;20543;-69
2021/12/28 19:41:51;;;;;;;7.03;2.50;;;9.90;99.90;;;;;;5064497;28;20454;-68
2021/12/28 19:44:18;;;;;;;10.17;2.90;;;9.90;99.90;;;;;;5055243;28;20207;-69
2021/12/28 19:46:44;;;;;;;6.50;2.90;;;9.90;99.90;;;;;;5062841;28;20454;-69
2021/12/28 19:49:11;;;;;;;6.60;2.50;;;9.90;99.90;;;;;;5059568;28;20841;-70
2021/12/28 19:51:37;;;;;;;25.63;4.13;;;10.00;99.90;;;;;;5056279;28;20792;-69
2021/12/28 19:54:05;;;;;;;9.23;2.40;;;10.00;99.90;;;;;;5066972;28;20414;-70
2021/12/28 19:56:31;;;;;;;13.90;3.00;;;10.00;99.90;;;;;;5067220;28;20746;-69
2021/12/28 19:58:58;;;;;;;7.07;2.13;;;10.00;99.90;;;;;;5050671;28;20435;-70
2021/12/28 20:01:25;;;;;;;12.30;2.50;;;10.10;99.90;;;;;;5058359;28;20431;-69
2021/12/28 20:03:51;;;;;;;12.03;2.90;;;10.10;99.90;;;;;;5075390;28;20454;-70
2021/12/28 20:06:19;;;;;;;8.83;2.40;;;10.10;99.90;;;;;;5066093;28;20770;-69
2021/12/28 20:08:45;;;;;;;8.50;2.13;;;10.10;99.90;;;;;;5065615;28;20955;-70
2021/12/28 20:11:11;;;;;;;7.17;2.57;;;10.20;99.90;;;;;;5065570;28;20556;-70
2021/12/28 20:13:36;;;;;;;12.97;3.00;;;10.20;99.90;;;;;;5066386;28;20192;-70
2021/12/28 20:16:02;;;;;;;7.63;2.43;;;10.30;99.90;;;;;;5052812;28;20201;-69
2021/12/28 20:18:28;;;;;;;4.73;2.30;;;10.30;99.90;;;;;;5046816;28;20264;-70
2021/12/28 20:20:53;;;;;;;8.13;2.10;;;10.40;99.90;;;;;;5048792;28;20611;-69
2021/12/28 20:23:19;;;;;;;9.83;2.30;;;10.40;99.90;;;;;;5060712;28;20193;-70
2021/12/28 20:25:47;;;;;;;9.43;2.67;;;10.50;99.90;;;;;;5049191;28;20185;-70
2021/12/28 20:28:13;;;;;;;12.60;2.67;;;10.50;99.90;;;;;;5063531;28;20669;-70
2021/12/28 20:30:39;;;;;;;10.00;1.90;;;10.50;99.90;;;;;;5058414;28;20434;-70
2021/12/28 20:33:05;;;;;;;13.07;2.77;;;10.60;99.90;;;;;;5067486;28;20450;-69
2021/12/28 20:35:31;;;;;;;9.50;2.40;;;10.60;99.90;;;;;;5068198;28;20534;-70
2021/12/28 20:37:57;;;;;;;5.57;1.93;;;10.60;99.90;;;;;;5057874;28;20169;-69
2021/12/28 20:40:23;;;;;;;6.37;2.10;;;10.60;99.90;;;;;;5075061;28;20427;-70
2021/12/28 20:42:49;;;;;;;8.23;2.20;;;10.70;99.90;;;;;;5050493;28;20611;-70
2021/12/28 20:45:17;;;;;;;6.40;3.27;;;10.70;99.90;;;;;;5063693;28;20522;-70
2021/12/28 20:47:45;;;;;;;14.27;4.20;;;10.70;99.90;;;;;;5053815;28;20626;-70
2021/12/28 20:50:12;;;;;;;7.17;2.33;;;10.80;99.90;;;;;;5067027;28;20431;-70
2021/12/28 20:52:38;;;;;;;9.53;2.90;;;10.70;99.90;;;;;;5060935;28;20448;-70
2021/12/28 20:55:05;;;;;;;11.00;3.03;;;10.90;99.90;;;;;;5068455;28;20941;-70
2021/12/28 20:57:30;;;;;;;12.90;2.40;;;10.70;99.90;;;;;;5069439;28;20425;-70
2021/12/28 20:59:56;;;;;;;11.17;2.27;;;10.70;99.90;;;;;;5071040;28;20522;-69
2021/12/28 21:02:21;;;;;;;10.67;3.33;;;10.90;99.90;;;;;;5063556;28;20204;-70
2021/12/28 21:04:48;;;;;;;11.77;3.27;;;10.70;99.90;;;;;;5078293;28;20168;-70
2021/12/28 21:07:14;;;;;;;8.30;2.30;;;10.70;99.90;;;;;;5070064;28;20522;-70